humankinetics.com alexa rank chart, humankinetics.com alexa rank daily changes

humankinetics.com alexa rank chart, humankinetics.com alexa rank daily changes

humankinetics.com
Actual rank:
35 652

RANK HISTORY

Date Rank Diff
2018/05/25 35 652 +15 066
2018/05/24 20 586 +4 405
2018/05/23 16 181 -19 850
2018/05/22 36 031 -3 770
2018/05/21 39 801 +6 279
2018/05/20 33 522 +8 582
2018/05/19 24 940 -14 985
2018/05/18 39 925 +4 052
2018/05/17 35 873 -1 373
2018/05/16 37 246 -1 712
2018/05/15 38 958 -30 145
2018/05/14 69 103 +23 424
2018/05/13 45 679 +11 305
2018/05/12 34 374 +3 376
2018/05/11 30 998 +1 014
2018/05/10 29 984 +3 629
2018/05/09 26 355 -17 079
2018/05/08 43 434 -6 152
2018/05/07 49 586 +10 935
2018/05/06 38 651 +7 853
2018/05/05 30 798 -5 601
2018/05/04 36 399 -1 454
2018/05/03 37 853 +9 975
2018/05/02 27 878 +1 644
2018/05/01 26 234 -18 206
2018/04/30 44 440 +12 728
2018/04/29 31 712 -396
2018/04/28 32 108 -13 674
2018/04/27 45 782 +4 070
2018/04/26 41 712 +6 497
2018/04/25 35 215 +12 692
2018/04/24 22 523 -23 259
2018/04/23 45 782 +5 146
2018/04/22 40 636 -1 276
2018/04/21 41 912 +20 682
2018/04/20 21 230 -5 589
2018/04/19 26 819 +5 335
2018/04/18 21 484 -2 322
2018/04/17 23 806 -27 418
2018/04/16 51 224 +20 528
2018/04/15 30 696 -4 612
2018/04/14 35 308 +12 701
2018/04/13 22 607 -2 190
2018/04/12 24 797 +3 516
2018/04/11 21 281 -14 081
2018/04/10 35 362 -2 891
2018/04/09 38 253 +8 505
2018/04/08 29 748 +4 331
2018/04/07 25 417 -3 054
2018/04/06 28 471 -289
2018/04/05 28 760 -8 590
2018/04/04 37 350 -3 114
2018/04/03 40 464 -9 159
2018/04/02 49 623 +11 141
2018/04/01 38 482 +2 062
2018/03/31 36 420 +3 414
2018/03/30 33 006 +4 992
2018/03/29 28 014 -17 518
2018/03/28 45 532 +14 555
2018/03/27 30 977 +4 723
2018/03/26 26 254

WIDGET FOR YOUR SITE

DOMAINS WITH THE NEAREST RANK

Domain Rank
us.edu.pl 35 647
etagi.com 35 648
hostingsoftwaredl.com 35 649
adflyk.com 35 650
wellmp3.com 35 651
humankinetics.com 35 652
zipfile.co 35 653
bedpage.com 35 654
maybank.com.sg 35 655
wcvb.com 35 656
alexlarin.net 35 657

DOMAINS WITH THE NEAREST RANK BY TLD .com

Domain Rank
brownsfashion.com 35 646
etagi.com 35 648
hostingsoftwaredl.com 35 649
adflyk.com 35 650
wellmp3.com 35 651
humankinetics.com 35 652
bedpage.com 35 654
wcvb.com 35 656
tyjnuomvpyt.com 35 662
explorimmo.com 35 666
wishpond.com 35 667